sensor_id;sensor_type;location;lat;lon;timestamp;pressure;altitude;pressure_sealevel;temperature;humidity
72677;BME280;60755;51.374;10.662;2023-05-24T00:00:18;97617.25;;;5.72;89.15
72677;BME280;60755;51.374;10.662;2023-05-24T00:02:46;97618.41;;;5.69;89.33
72677;BME280;60755;51.374;10.662;2023-05-24T00:05:15;97625.22;;;5.64;89.95
72677;BME280;60755;51.374;10.662;2023-05-24T00:07:43;97627.22;;;5.61;90.05
72677;BME280;60755;51.374;10.662;2023-05-24T00:10:11;97617.56;;;5.55;89.79
72677;BME280;60755;51.374;10.662;2023-05-24T00:12:38;97614.94;;;5.49;90.60
72677;BME280;60755;51.374;10.662;2023-05-24T00:15:06;97616.88;;;5.40;91.19
72677;BME280;60755;51.374;10.662;2023-05-24T00:17:33;97617.94;;;5.46;90.58
72677;BME280;60755;51.374;10.662;2023-05-24T00:20:08;97609.88;;;5.41;90.95
72677;BME280;60755;51.374;10.662;2023-05-24T00:22:38;97615.88;;;5.41;90.54
72677;BME280;60755;51.374;10.662;2023-05-24T00:25:06;97611.69;;;5.40;90.33
72677;BME280;60755;51.374;10.662;2023-05-24T00:27:33;97608.22;;;5.33;90.68
72677;BME280;60755;51.374;10.662;2023-05-24T00:30:02;97611.03;;;5.31;90.71
72677;BME280;60755;51.374;10.662;2023-05-24T00:32:29;97610.63;;;5.34;90.60
72677;BME280;60755;51.374;10.662;2023-05-24T00:34:56;97603.84;;;5.40;90.55
72677;BME280;60755;51.374;10.662;2023-05-24T00:37:24;97609.47;;;5.44;90.45
72677;BME280;60755;51.374;10.662;2023-05-24T00:39:53;97612.25;;;5.36;91.12
72677;BME280;60755;51.374;10.662;2023-05-24T00:42:20;97615.28;;;5.39;91.07
72677;BME280;60755;51.374;10.662;2023-05-24T00:44:47;97611.22;;;5.30;91.29
72677;BME280;60755;51.374;10.662;2023-05-24T00:47:15;97616.59;;;5.28;91.82
72677;BME280;60755;51.374;10.662;2023-05-24T00:49:45;97622.25;;;5.32;91.89
72677;BME280;60755;51.374;10.662;2023-05-24T00:52:12;97608.22;;;5.33;91.47
72677;BME280;60755;51.374;10.662;2023-05-24T00:54:40;97604.22;;;5.30;92.07
72677;BME280;60755;51.374;10.662;2023-05-24T00:57:08;97611.22;;;5.30;93.05
72677;BME280;60755;51.374;10.662;2023-05-24T00:59:38;97612.84;;;5.31;92.27
72677;BME280;60755;51.374;10.662;2023-05-24T01:02:06;97617.00;;;5.25;92.32
72677;BME280;60755;51.374;10.662;2023-05-24T01:04:33;97613.34;;;5.20;92.76
72677;BME280;60755;51.374;10.662;2023-05-24T01:07:10;97617.69;;;5.13;93.19
72677;BME280;60755;51.374;10.662;2023-05-24T01:09:53;97616.09;;;5.12;93.46
72677;BME280;60755;51.374;10.662;2023-05-24T01:12:34;97618.91;;;5.10;93.11
72677;BME280;60755;51.374;10.662;2023-05-24T01:15:08;97620.16;;;5.21;92.09
72677;BME280;60755;51.374;10.662;2023-05-24T01:17:45;97625.81;;;5.24;92.07
72677;BME280;60755;51.374;10.662;2023-05-24T01:20:16;97623.78;;;5.20;92.10
72677;BME280;60755;51.374;10.662;2023-05-24T01:23:00;97619.75;;;5.17;92.33
72677;BME280;60755;51.374;10.662;2023-05-24T01:26:02;97610.13;;;5.18;93.29
72677;BME280;60755;51.374;10.662;2023-05-24T01:28:35;97613.69;;;5.10;93.33
72677;BME280;60755;51.374;10.662;2023-05-24T01:31:03;97612.50;;;5.13;93.55
72677;BME280;60755;51.374;10.662;2023-05-24T01:33:31;97605.81;;;5.03;93.84
72677;BME280;60755;51.374;10.662;2023-05-24T01:35:58;97605.78;;;4.97;94.60
72677;BME280;60755;51.374;10.662;2023-05-24T01:38:25;97609.97;;;4.91;94.59
72677;BME280;60755;51.374;10.662;2023-05-24T01:41:00;97611.91;;;4.83;95.41
72677;BME280;60755;51.374;10.662;2023-05-24T01:43:33;97599.53;;;4.91;95.67
72677;BME280;60755;51.374;10.662;2023-05-24T01:46:12;97616.53;;;4.87;95.70
72677;BME280;60755;51.374;10.662;2023-05-24T01:48:48;97615.53;;;4.88;95.54
72677;BME280;60755;51.374;10.662;2023-05-24T01:51:23;97604.56;;;4.93;95.73
72677;BME280;60755;51.374;10.662;2023-05-24T01:53:51;97612.69;;;4.83;96.55
72677;BME280;60755;51.374;10.662;2023-05-24T01:56:19;97607.50;;;4.83;96.54
72677;BME280;60755;51.374;10.662;2023-05-24T01:58:49;97603.44;;;4.81;97.09
72677;BME280;60755;51.374;10.662;2023-05-24T02:01:20;97608.25;;;4.77;96.61
72677;BME280;60755;51.374;10.662;2023-05-24T02:03:47;97608.63;;;4.74;97.18
72677;BME280;60755;51.374;10.662;2023-05-24T02:06:15;97601.19;;;4.71;97.31
72677;BME280;60755;51.374;10.662;2023-05-24T02:08:42;97598.97;;;4.68;97.99
72677;BME280;60755;51.374;10.662;2023-05-24T02:11:10;97596.56;;;4.66;98.44
72677;BME280;60755;51.374;10.662;2023-05-24T02:13:37;97587.31;;;4.64;98.97
72677;BME280;60755;51.374;10.662;2023-05-24T02:16:05;97592.28;;;4.59;99.28
72677;BME280;60755;51.374;10.662;2023-05-24T02:18:33;97596.06;;;4.56;99.75
72677;BME280;60755;51.374;10.662;2023-05-24T02:21:00;97594.44;;;4.55;99.98
72677;BME280;60755;51.374;10.662;2023-05-24T02:23:28;97595.09;;;4.57;100.00
72677;BME280;60755;51.374;10.662;2023-05-24T02:25:55;97599.66;;;4.55;99.65
72677;BME280;60755;51.374;10.662;2023-05-24T02:28:22;97598.63;;;4.49;100.00
72677;BME280;60755;51.374;10.662;2023-05-24T02:30:49;97600.72;;;4.39;100.00
72677;BME280;60755;51.374;10.662;2023-05-24T02:33:16;97596.31;;;4.40;100.00
72677;BME280;60755;51.374;10.662;2023-05-24T02:35:45;97599.28;;;4.37;100.00
72677;BME280;60755;51.374;10.662;2023-05-24T02:38:12;97595.69;;;4.38;100.00
72677;BME280;60755;51.374;10.662;2023-05-24T02:40:39;97601.09;;;4.36;100.00
72677;BME280;60755;51.374;10.662;2023-05-24T02:43:06;97598.22;;;4.31;100.00
72677;BME280;60755;51.374;10.662;2023-05-24T02:45:34;97593.22;;;4.30;100.00
72677;BME280;60755;51.374;10.662;2023-05-24T02:48:02;97592.00;;;4.26;100.00
72677;BME280;60755;51.374;10.662;2023-05-24T02:50:30;97592.13;;;4.17;100.00
72677;BME280;60755;51.374;10.662;2023-05-24T02:52:59;97597.75;;;4.21;100.00
72677;BME280;60755;51.374;10.662;2023-05-24T02:55:26;97600.72;;;4.18;100.00
72677;BME280;60755;51.374;10.662;2023-05-24T02:57:54;97601.13;;;4.21;100.00
72677;BME280;60755;51.374;10.662;2023-05-24T03:00:21;97605.28;;;4.16;100.00
72677;BME280;60755;51.374;10.662;2023-05-24T03:02:48;97595.63;;;4.10;100.00
72677;BME280;60755;51.374;10.662;2023-05-24T03:05:17;97599.19;;;4.09;100.00
72677;BME280;60755;51.374;10.662;2023-05-24T03:07:44;97597.25;;;4.11;100.00
72677;BME280;60755;51.374;10.662;2023-05-24T03:10:13;97598.47;;;4.15;100.00
72677;BME280;60755;51.374;10.662;2023-05-24T03:12:40;97600.84;;;4.10;100.00
72677;BME280;60755;51.374;10.662;2023-05-24T03:15:08;97601.91;;;4.01;100.00
72677;BME280;60755;51.374;10.662;2023-05-24T03:17:36;97599.06;;;3.96;100.00
72677;BME280;60755;51.374;10.662;2023-05-24T03:20:04;97602.38;;;4.04;100.00
72677;BME280;60755;51.374;10.662;2023-05-24T03:22:31;97610.19;;;4.26;100.00
72677;BME280;60755;51.374;10.662;2023-05-24T03:24:58;97599.28;;;4.15;100.00
72677;BME280;60755;51.374;10.662;2023-05-24T03:27:27;97605.78;;;4.05;100.00
72677;BME280;60755;51.374;10.662;2023-05-24T03:29:54;97603.47;;;3.95;100.00
72677;BME280;60755;51.374;10.662;2023-05-24T03:32:25;97602.22;;;3.91;100.00
72677;BME280;60755;51.374;10.662;2023-05-24T03:34:52;97608.75;;;4.02;100.00
72677;BME280;60755;51.374;10.662;2023-05-24T03:37:21;97606.41;;;4.28;100.00
72677;BME280;60755;51.374;10.662;2023-05-24T03:39:49;97606.97;;;4.66;100.00
72677;BME280;60755;51.374;10.662;2023-05-24T03:42:30;97609.53;;;5.16;100.00
72677;BME280;60755;51.374;10.662;2023-05-24T03:44:57;97602.69;;;5.49;97.87
72677;BME280;60755;51.374;10.662;2023-05-24T03:47:25;97604.53;;;5.97;93.83
72677;BME280;60755;51.374;10.662;2023-05-24T03:49:52;97605.84;;;6.47;89.79
72677;BME280;60755;51.374;10.662;2023-05-24T03:52:19;97602.44;;;6.99;85.84
72677;BME280;60755;51.374;10.662;2023-05-24T03:54:46;97606.41;;;7.35;84.13
72677;BME280;60755;51.374;10.662;2023-05-24T03:57:14;97614.22;;;8.00;79.77
72677;BME280;60755;51.374;10.662;2023-05-24T03:59:42;97610.06;;;8.62;76.76
72677;BME280;60755;51.374;10.662;2023-05-24T04:02:09;97614.09;;;9.33;76.56
72677;BME280;60755;51.374;10.662;2023-05-24T04:04:36;97623.59;;;9.52;73.51
72677;BME280;60755;51.374;10.662;2023-05-24T04:07:04;97625.50;;;9.81;71.82
72677;BME280;60755;51.374;10.662;2023-05-24T04:09:32;97624.56;;;10.24;70.13
72677;BME280;60755;51.374;10.662;2023-05-24T04:12:00;97633.09;;;10.20;70.46
72677;BME280;60755;51.374;10.662;2023-05-24T04:14:27;97629.06;;;9.50;70.90
72677;BME280;60755;51.374;10.662;2023-05-24T04:16:55;97625.28;;;9.21;71.93
72677;BME280;60755;51.374;10.662;2023-05-24T04:19:22;97620.44;;;9.98;70.79
72677;BME280;60755;51.374;10.662;2023-05-24T04:21:49;97623.34;;;10.69;68.58
72677;BME280;60755;51.374;10.662;2023-05-24T04:24:16;97628.00;;;10.06;68.69
72677;BME280;60755;51.374;10.662;2023-05-24T04:26:44;97637.38;;;10.62;67.75
72677;BME280;60755;51.374;10.662;2023-05-24T04:29:12;97634.53;;;12.62;62.76
72677;BME280;60755;51.374;10.662;2023-05-24T04:31:39;97645.69;;;11.01;64.95
72677;BME280;60755;51.374;10.662;2023-05-24T04:34:09;97637.06;;;12.56;62.05
72677;BME280;60755;51.374;10.662;2023-05-24T04:36:38;97638.72;;;11.30;63.75
72677;BME280;60755;51.374;10.662;2023-05-24T04:39:08;97640.50;;;10.41;67.07
72677;BME280;60755;51.374;10.662;2023-05-24T04:41:36;97644.25;;;10.63;68.09
72677;BME280;60755;51.374;10.662;2023-05-24T04:44:03;97644.94;;;12.11;63.50
72677;BME280;60755;51.374;10.662;2023-05-24T04:46:30;97643.31;;;10.09;68.05
72677;BME280;60755;51.374;10.662;2023-05-24T04:49:00;97639.09;;;9.35;71.55
72677;BME280;60755;51.374;10.662;2023-05-24T04:51:29;97643.25;;;8.43;75.21
72677;BME280;60755;51.374;10.662;2023-05-24T04:53:56;97648.53;;;8.23;75.11
72677;BME280;60755;51.374;10.662;2023-05-24T04:56:24;97645.97;;;7.52;78.88
72677;BME280;60755;51.374;10.662;2023-05-24T04:58:51;97647.63;;;7.26;80.95
72677;BME280;60755;51.374;10.662;2023-05-24T05:01:19;97654.84;;;7.38;81.13
72677;BME280;60755;51.374;10.662;2023-05-24T05:03:46;97668.25;;;7.81;80.89
72677;BME280;60755;51.374;10.662;2023-05-24T05:06:13;97657.53;;;8.34;80.39
72677;BME280;60755;51.374;10.662;2023-05-24T05:08:41;97655.28;;;8.51;77.00
72677;BME280;60755;51.374;10.662;2023-05-24T05:11:09;97653.03;;;8.86;79.16
72677;BME280;60755;51.374;10.662;2023-05-24T05:13:36;97654.59;;;9.37;78.76
72677;BME280;60755;51.374;10.662;2023-05-24T05:16:03;97659.16;;;9.66;74.18
72677;BME280;60755;51.374;10.662;2023-05-24T05:18:31;97659.38;;;9.83;71.40
72677;BME280;60755;51.374;10.662;2023-05-24T05:20:58;97654.53;;;9.43;72.55
72677;BME280;60755;51.374;10.662;2023-05-24T05:23:25;97652.50;;;9.45;73.06
72677;BME280;60755;51.374;10.662;2023-05-24T05:25:54;97657.84;;;9.57;74.45
72677;BME280;60755;51.374;10.662;2023-05-24T05:28:21;97651.53;;;8.65;75.58
72677;BME280;60755;51.374;10.662;2023-05-24T05:30:48;97660.50;;;9.32;74.70
72677;BME280;60755;51.374;10.662;2023-05-24T05:33:15;97658.66;;;10.13;73.20
72677;BME280;60755;51.374;10.662;2023-05-24T05:35:43;97664.50;;;9.96;71.58
72677;BME280;60755;51.374;10.662;2023-05-24T05:38:10;97663.47;;;10.76;69.87
72677;BME280;60755;51.374;10.662;2023-05-24T05:40:37;97664.22;;;11.30;68.65
72677;BME280;60755;51.374;10.662;2023-05-24T05:43:05;97675.44;;;11.60;66.99
72677;BME280;60755;51.374;10.662;2023-05-24T05:45:34;97663.69;;;12.15;65.21
72677;BME280;60755;51.374;10.662;2023-05-24T05:48:01;97667.31;;;11.38;67.33
72677;BME280;60755;51.374;10.662;2023-05-24T05:50:28;97663.50;;;13.79;61.27
72677;BME280;60755;51.374;10.662;2023-05-24T05:52:55;97664.34;;;14.45;60.13
72677;BME280;60755;51.374;10.662;2023-05-24T05:55:22;97654.94;;;13.89;59.58
72677;BME280;60755;51.374;10.662;2023-05-24T05:57:49;97660.53;;;13.03;60.52
72677;BME280;60755;51.374;10.662;2023-05-24T06:00:21;97674.66;;;11.83;64.34
72677;BME280;60755;51.374;10.662;2023-05-24T06:02:48;97665.78;;;12.13;65.40
72677;BME280;60755;51.374;10.662;2023-05-24T06:05:16;97676.69;;;10.99;67.92
72677;BME280;60755;51.374;10.662;2023-05-24T06:07:43;97673.16;;;11.29;67.84
72677;BME280;60755;51.374;10.662;2023-05-24T06:10:11;97669.06;;;11.33;66.90
72677;BME280;60755;51.374;10.662;2023-05-24T06:12:39;97671.22;;;11.47;67.74
72677;BME280;60755;51.374;10.662;2023-05-24T06:15:08;97669.50;;;14.89;59.83
72677;BME280;60755;51.374;10.662;2023-05-24T06:17:37;97666.59;;;14.91;55.65
72677;BME280;60755;51.374;10.662;2023-05-24T06:20:04;97659.28;;;17.87;50.77
72677;BME280;60755;51.374;10.662;2023-05-24T06:22:33;97663.78;;;19.88;44.27
72677;BME280;60755;51.374;10.662;2023-05-24T06:25:02;97674.44;;;19.88;44.08
72677;BME280;60755;51.374;10.662;2023-05-24T06:27:30;97667.84;;;18.93;44.25
72677;BME280;60755;51.374;10.662;2023-05-24T06:29:57;97679.44;;;16.41;49.91
72677;BME280;60755;51.374;10.662;2023-05-24T06:32:24;97677.31;;;15.75;52.26
72677;BME280;60755;51.374;10.662;2023-05-24T06:34:53;97680.97;;;13.25;59.32
72677;BME280;60755;51.374;10.662;2023-05-24T06:37:20;97689.41;;;11.49;63.88
72677;BME280;60755;51.374;10.662;2023-05-24T06:39:49;97690.03;;;10.86;67.43
72677;BME280;60755;51.374;10.662;2023-05-24T06:42:17;97692.31;;;10.16;69.21
72677;BME280;60755;51.374;10.662;2023-05-24T06:44:45;97696.72;;;10.40;69.38
72677;BME280;60755;51.374;10.662;2023-05-24T06:47:12;97694.53;;;11.09;69.22
72677;BME280;60755;51.374;10.662;2023-05-24T06:49:39;97698.72;;;10.98;68.84
72677;BME280;60755;51.374;10.662;2023-05-24T06:52:08;97700.16;;;10.82;69.79
72677;BME280;60755;51.374;10.662;2023-05-24T06:54:36;97696.25;;;10.73;69.12
72677;BME280;60755;51.374;10.662;2023-05-24T06:57:03;97700.53;;;11.39;69.13
72677;BME280;60755;51.374;10.662;2023-05-24T06:59:30;97695.59;;;11.31;68.82
72677;BME280;60755;51.374;10.662;2023-05-24T07:01:57;97702.28;;;11.04;68.76
72677;BME280;60755;51.374;10.662;2023-05-24T07:04:24;97709.50;;;11.08;67.29
72677;BME280;60755;51.374;10.662;2023-05-24T07:06:52;97707.25;;;11.35;66.72
72677;BME280;60755;51.374;10.662;2023-05-24T07:09:21;97711.38;;;11.31;68.03
72677;BME280;60755;51.374;10.662;2023-05-24T07:11:48;97705.59;;;12.56;62.85
72677;BME280;60755;51.374;10.662;2023-05-24T07:14:15;97702.44;;;13.67;61.11
72677;BME280;60755;51.374;10.662;2023-05-24T07:16:43;97704.56;;;13.48;59.82
72677;BME280;60755;51.374;10.662;2023-05-24T07:19:10;97708.88;;;12.35;62.07
72677;BME280;60755;51.374;10.662;2023-05-24T07:21:38;97720.81;;;12.66;62.20
72677;BME280;60755;51.374;10.662;2023-05-24T07:24:05;97715.25;;;11.29;65.09
72677;BME280;60755;51.374;10.662;2023-05-24T07:26:34;97717.22;;;11.57;65.91
72677;BME280;60755;51.374;10.662;2023-05-24T07:29:01;97728.97;;;11.07;66.44
72677;BME280;60755;51.374;10.662;2023-05-24T07:31:28;97718.91;;;11.28;66.12
72677;BME280;60755;51.374;10.662;2023-05-24T07:33:57;97720.53;;;11.52;67.11
72677;BME280;60755;51.374;10.662;2023-05-24T07:36:24;97723.63;;;10.84;67.93
72677;BME280;60755;51.374;10.662;2023-05-24T07:38:51;97722.50;;;10.91;69.17
72677;BME280;60755;51.374;10.662;2023-05-24T07:41:19;97714.25;;;10.58;68.59
72677;BME280;60755;51.374;10.662;2023-05-24T07:43:47;97728.88;;;10.54;69.52
72677;BME280;60755;51.374;10.662;2023-05-24T07:46:14;97718.47;;;10.29;70.41
72677;BME280;60755;51.374;10.662;2023-05-24T07:48:41;97723.81;;;10.22;71.33
72677;BME280;60755;51.374;10.662;2023-05-24T07:51:08;97725.88;;;11.22;70.34
72677;BME280;60755;51.374;10.662;2023-05-24T07:53:35;97722.56;;;11.27;67.04
72677;BME280;60755;51.374;10.662;2023-05-24T07:56:03;97728.69;;;10.97;67.10
72677;BME280;60755;51.374;10.662;2023-05-24T07:58:30;97726.84;;;11.74;67.76
72677;BME280;60755;51.374;10.662;2023-05-24T08:00:59;97721.22;;;12.06;64.03
72677;BME280;60755;51.374;10.662;2023-05-24T08:03:26;97725.34;;;11.78;67.30
72677;BME280;60755;51.374;10.662;2023-05-24T08:05:54;97718.75;;;12.68;64.56
72677;BME280;60755;51.374;10.662;2023-05-24T08:08:22;97727.44;;;12.40;63.22
72677;BME280;60755;51.374;10.662;2023-05-24T08:10:49;97729.97;;;11.06;65.25
72677;BME280;60755;51.374;10.662;2023-05-24T08:13:16;97726.50;;;11.59;64.98
72677;BME280;60755;51.374;10.662;2023-05-24T08:15:43;97731.00;;;11.05;67.12
72677;BME280;60755;51.374;10.662;2023-05-24T08:18:12;97722.38;;;11.40;65.50
72677;BME280;60755;51.374;10.662;2023-05-24T08:20:39;97705.59;;;12.56;63.81
72677;BME280;60755;51.374;10.662;2023-05-24T08:23:06;97717.47;;;12.71;63.57
72677;BME280;60755;51.374;10.662;2023-05-24T08:25:33;97723.75;;;13.27;63.49
72677;BME280;60755;51.374;10.662;2023-05-24T08:28:00;97726.13;;;14.88;60.21
72677;BME280;60755;51.374;10.662;2023-05-24T08:30:27;97725.75;;;15.01;58.30
72677;BME280;60755;51.374;10.662;2023-05-24T08:32:55;97723.84;;;14.48;59.49
72677;BME280;60755;51.374;10.662;2023-05-24T08:35:24;97727.44;;;12.52;62.77
72677;BME280;60755;51.374;10.662;2023-05-24T08:37:51;97731.84;;;12.63;63.40
72677;BME280;60755;51.374;10.662;2023-05-24T08:40:18;97734.31;;;12.41;64.52
72677;BME280;60755;51.374;10.662;2023-05-24T08:42:46;97737.34;;;10.86;67.64
72677;BME280;60755;51.374;10.662;2023-05-24T08:45:16;97741.06;;;11.08;68.63
72677;BME280;60755;51.374;10.662;2023-05-24T08:47:45;97739.31;;;11.67;67.71
72677;BME280;60755;51.374;10.662;2023-05-24T08:50:12;97747.28;;;12.31;65.13
72677;BME280;60755;51.374;10.662;2023-05-24T08:52:41;97744.94;;;12.06;63.57
72677;BME280;60755;51.374;10.662;2023-05-24T08:55:09;97740.38;;;12.42;62.94
72677;BME280;60755;51.374;10.662;2023-05-24T08:57:37;97745.16;;;11.93;63.01
72677;BME280;60755;51.374;10.662;2023-05-24T09:00:07;97748.13;;;12.08;62.34
72677;BME280;60755;51.374;10.662;2023-05-24T09:02:36;97732.78;;;12.85;63.31
72677;BME280;60755;51.374;10.662;2023-05-24T09:05:08;97729.63;;;14.23;59.95
72677;BME280;60755;51.374;10.662;2023-05-24T09:07:36;97729.19;;;14.31;56.88
72677;BME280;60755;51.374;10.662;2023-05-24T09:10:06;97730.94;;;12.17;59.77
72677;BME280;60755;51.374;10.662;2023-05-24T09:12:36;97724.00;;;12.40;62.22
72677;BME280;60755;51.374;10.662;2023-05-24T09:15:05;97735.84;;;12.37;64.18
72677;BME280;60755;51.374;10.662;2023-05-24T09:17:33;97729.59;;;12.83;61.95
72677;BME280;60755;51.374;10.662;2023-05-24T09:20:00;97732.41;;;12.65;61.81
72677;BME280;60755;51.374;10.662;2023-05-24T09:22:31;97731.66;;;12.53;62.96
72677;BME280;60755;51.374;10.662;2023-05-24T09:25:00;97734.16;;;12.19;61.69
72677;BME280;60755;51.374;10.662;2023-05-24T09:27:30;97732.25;;;12.43;63.22
72677;BME280;60755;51.374;10.662;2023-05-24T09:29:59;97727.00;;;12.43;63.42
72677;BME280;60755;51.374;10.662;2023-05-24T09:32:26;97732.78;;;12.85;63.22
72677;BME280;60755;51.374;10.662;2023-05-24T09:34:56;97722.56;;;13.34;61.73
72677;BME280;60755;51.374;10.662;2023-05-24T09:37:24;97729.59;;;13.46;59.84
72677;BME280;60755;51.374;10.662;2023-05-24T09:39:53;97727.53;;;13.48;59.01
72677;BME280;60755;51.374;10.662;2023-05-24T09:42:22;97729.56;;;12.55;60.31
72677;BME280;60755;51.374;10.662;2023-05-24T09:44:59;97727.66;;;13.58;60.29
72677;BME280;60755;51.374;10.662;2023-05-24T09:47:29;97727.44;;;13.98;56.36
72677;BME280;60755;51.374;10.662;2023-05-24T09:49:58;97733.59;;;13.65;55.40
72677;BME280;60755;51.374;10.662;2023-05-24T09:52:25;97728.16;;;13.93;55.09
72677;BME280;60755;51.374;10.662;2023-05-24T09:54:53;97726.88;;;13.40;55.07
72677;BME280;60755;51.374;10.662;2023-05-24T09:57:21;97730.25;;;13.91;55.83
72677;BME280;60755;51.374;10.662;2023-05-24T09:59:48;97721.47;;;13.02;56.61
72677;BME280;60755;51.374;10.662;2023-05-24T10:02:20;97731.03;;;13.36;56.06
72677;BME280;60755;51.374;10.662;2023-05-24T10:04:57;97730.22;;;13.36;56.42
72677;BME280;60755;51.374;10.662;2023-05-24T10:07:25;97738.25;;;13.24;57.78
72677;BME280;60755;51.374;10.662;2023-05-24T10:09:52;97739.56;;;12.01;56.45
72677;BME280;60755;51.374;10.662;2023-05-24T10:12:20;97731.13;;;12.39;56.60
72677;BME280;60755;51.374;10.662;2023-05-24T10:14:50;97727.16;;;13.78;56.36
72677;BME280;60755;51.374;10.662;2023-05-24T10:17:19;97734.16;;;14.71;54.38
72677;BME280;60755;51.374;10.662;2023-05-24T10:19:47;97734.50;;;14.53;53.81
72677;BME280;60755;51.374;10.662;2023-05-24T10:22:14;97746.31;;;14.94;52.81
72677;BME280;60755;51.374;10.662;2023-05-24T10:24:45;97745.41;;;13.29;55.92
72677;BME280;60755;51.374;10.662;2023-05-24T10:27:14;97749.16;;;12.87;58.39
72677;BME280;60755;51.374;10.662;2023-05-24T10:29:47;97752.00;;;13.26;56.88
72677;BME280;60755;51.374;10.662;2023-05-24T10:32:21;97757.66;;;13.35;57.65
72677;BME280;60755;51.374;10.662;2023-05-24T10:34:50;97759.13;;;13.42;57.48
72677;BME280;60755;51.374;10.662;2023-05-24T10:37:19;97744.78;;;13.72;55.47
72677;BME280;60755;51.374;10.662;2023-05-24T10:39:47;97748.22;;;13.73;55.04
72677;BME280;60755;51.374;10.662;2023-05-24T10:42:16;97757.13;;;13.66;55.85
72677;BME280;60755;51.374;10.662;2023-05-24T10:44:43;97748.69;;;13.69;53.55
72677;BME280;60755;51.374;10.662;2023-05-24T10:47:13;97753.63;;;13.15;54.73
72677;BME280;60755;51.374;10.662;2023-05-24T10:49:49;97757.09;;;12.87;55.89
72677;BME280;60755;51.374;10.662;2023-05-24T10:52:18;97758.13;;;12.86;55.61
72677;BME280;60755;51.374;10.662;2023-05-24T10:55:03;97757.84;;;12.71;55.92
72677;BME280;60755;51.374;10.662;2023-05-24T10:57:32;97755.97;;;13.46;55.83
72677;BME280;60755;51.374;10.662;2023-05-24T11:00:25;97761.59;;;13.04;55.38
72677;BME280;60755;51.374;10.662;2023-05-24T11:02:58;97762.09;;;12.09;57.32
72677;BME280;60755;51.374;10.662;2023-05-24T11:05:33;97760.91;;;12.51;58.08
72677;BME280;60755;51.374;10.662;2023-05-24T11:08:01;97772.25;;;12.52;57.89
72677;BME280;60755;51.374;10.662;2023-05-24T11:10:30;97766.41;;;12.78;56.90
72677;BME280;60755;51.374;10.662;2023-05-24T11:12:59;97757.72;;;12.66;56.31
72677;BME280;60755;51.374;10.662;2023-05-24T11:15:28;97757.69;;;13.06;57.33
72677;BME280;60755;51.374;10.662;2023-05-24T11:18:13;97758.03;;;12.53;58.76
72677;BME280;60755;51.374;10.662;2023-05-24T11:20:43;97754.38;;;12.42;58.47
72677;BME280;60755;51.374;10.662;2023-05-24T11:23:12;97744.91;;;12.29;57.11
72677;BME280;60755;51.374;10.662;2023-05-24T11:25:40;97737.38;;;12.50;57.05
72677;BME280;60755;51.374;10.662;2023-05-24T11:28:07;97738.59;;;12.59;56.04
72677;BME280;60755;51.374;10.662;2023-05-24T11:30:38;97741.41;;;12.52;57.55
72677;BME280;60755;51.374;10.662;2023-05-24T11:33:13;97735.28;;;12.92;56.78
72677;BME280;60755;51.374;10.662;2023-05-24T11:35:41;97735.84;;;12.66;57.07
72677;BME280;60755;51.374;10.662;2023-05-24T11:38:15;97726.53;;;13.20;57.56
72677;BME280;60755;51.374;10.662;2023-05-24T11:40:45;97725.75;;;13.20;55.92
72677;BME280;60755;51.374;10.662;2023-05-24T11:43:17;97734.13;;;12.88;59.04
72677;BME280;60755;51.374;10.662;2023-05-24T11:45:46;97728.09;;;13.04;58.40
72677;BME280;60755;51.374;10.662;2023-05-24T11:48:14;97737.44;;;12.38;58.76
72677;BME280;60755;51.374;10.662;2023-05-24T11:50:43;97732.41;;;12.94;58.01
72677;BME280;60755;51.374;10.662;2023-05-24T11:53:13;97725.63;;;12.69;58.76
72677;BME280;60755;51.374;10.662;2023-05-24T11:55:41;97718.72;;;13.42;56.07
72677;BME280;60755;51.374;10.662;2023-05-24T11:58:13;97727.81;;;13.18;57.87
72677;BME280;60755;51.374;10.662;2023-05-24T12:00:46;97734.81;;;13.40;58.21
72677;BME280;60755;51.374;10.662;2023-05-24T12:03:13;97720.28;;;13.77;57.41
72677;BME280;60755;51.374;10.662;2023-05-24T12:05:42;97731.00;;;13.70;56.72
72677;BME280;60755;51.374;10.662;2023-05-24T12:08:12;97733.75;;;13.41;56.68
72677;BME280;60755;51.374;10.662;2023-05-24T12:10:41;97731.81;;;13.54;59.77
72677;BME280;60755;51.374;10.662;2023-05-24T12:13:19;97735.97;;;13.83;55.99
72677;BME280;60755;51.374;10.662;2023-05-24T12:15:49;97731.97;;;13.81;56.32
72677;BME280;60755;51.374;10.662;2023-05-24T12:18:20;97724.34;;;13.84;55.52
72677;BME280;60755;51.374;10.662;2023-05-24T12:20:47;97726.94;;;14.01;53.00
72677;BME280;60755;51.374;10.662;2023-05-24T12:23:18;97733.53;;;13.98;54.10
72677;BME280;60755;51.374;10.662;2023-05-24T12:25:46;97733.09;;;14.45;55.94
72677;BME280;60755;51.374;10.662;2023-05-24T12:28:13;97728.00;;;14.66;55.62
72677;BME280;60755;51.374;10.662;2023-05-24T12:30:41;97728.03;;;14.93;53.04
72677;BME280;60755;51.374;10.662;2023-05-24T12:33:09;97731.72;;;15.19;52.80
72677;BME280;60755;51.374;10.662;2023-05-24T12:35:37;97730.31;;;15.75;52.47
72677;BME280;60755;51.374;10.662;2023-05-24T12:38:07;97737.00;;;14.21;53.05
72677;BME280;60755;51.374;10.662;2023-05-24T12:40:40;97740.69;;;14.20;54.59
72677;BME280;60755;51.374;10.662;2023-05-24T12:43:07;97739.66;;;15.19;55.06
72677;BME280;60755;51.374;10.662;2023-05-24T12:45:35;97738.31;;;16.33;50.51
72677;BME280;60755;51.374;10.662;2023-05-24T12:48:02;97738.78;;;15.40;50.43
72677;BME280;60755;51.374;10.662;2023-05-24T12:50:29;97736.38;;;16.13;48.91
72677;BME280;60755;51.374;10.662;2023-05-24T12:52:57;97738.03;;;16.29;47.10
72677;BME280;60755;51.374;10.662;2023-05-24T12:55:25;97734.88;;;14.89;49.85
72677;BME280;60755;51.374;10.662;2023-05-24T12:57:54;97740.81;;;14.74;47.48
72677;BME280;60755;51.374;10.662;2023-05-24T13:00:23;97743.25;;;15.39;49.32